createdAt,value
2023-12-09T00:00:46.196Z,100318.34
2023-12-09T00:03:12.929Z,100316.72
2023-12-09T00:05:39.824Z,100314.22
2023-12-09T00:08:06.779Z,100320.31
2023-12-09T00:10:33.474Z,100308.88
2023-12-09T00:13:03.966Z,100308.66
2023-12-09T00:15:33.862Z,100300.19
2023-12-09T00:18:03.166Z,100307.88
2023-12-09T00:20:30.453Z,100302.06
2023-12-09T00:22:57.432Z,100294.34
2023-12-09T00:25:24.276Z,100309.34
2023-12-09T00:27:51.457Z,100309.75
2023-12-09T00:30:18.340Z,100302.66
2023-12-09T00:32:45.830Z,100302.38
2023-12-09T00:35:16.057Z,100287.41
2023-12-09T00:37:42.796Z,100321.28
2023-12-09T00:40:10.018Z,100337.13
2023-12-09T00:42:36.731Z,100328.38
2023-12-09T00:45:03.755Z,100331.25
2023-12-09T00:47:30.287Z,100341.25
2023-12-09T00:49:57.438Z,100327.28
2023-12-09T00:52:25.610Z,100334.53
2023-12-09T00:54:52.683Z,100334.75
2023-12-09T00:57:22.434Z,100349.94
2023-12-09T00:59:49.126Z,100333.31
2023-12-09T01:02:15.959Z,100354.94
2023-12-09T01:04:44.089Z,100343.94
2023-12-09T01:07:11.651Z,100355.34
2023-12-09T01:09:38.321Z,100353.22
2023-12-09T01:12:06.351Z,100357.03
2023-12-09T01:14:33.388Z,100342.84
2023-12-09T01:17:00.246Z,100353.63
2023-12-09T01:19:27.052Z,100357.41
2023-12-09T01:21:54.489Z,100342.59
2023-12-09T01:24:21.319Z,100350.47
2023-12-09T01:26:48.093Z,100344.81
2023-12-09T01:29:14.790Z,100329.03
2023-12-09T01:31:42.512Z,100322.31
2023-12-09T01:34:11.054Z,100339.19
2023-12-09T01:36:38.090Z,100334.03
2023-12-09T01:39:04.795Z,100331.91
2023-12-09T01:41:32.903Z,100329.63
2023-12-09T01:43:59.662Z,100336.56
2023-12-09T01:46:27.413Z,100337.41
2023-12-09T01:48:54.225Z,100315.78
2023-12-09T01:51:22.495Z,100316.63
2023-12-09T01:53:49.576Z,100341.28
2023-12-09T01:56:18.936Z,100331.72
2023-12-09T01:58:45.895Z,100337.56
2023-12-09T02:01:13.752Z,100333.00
2023-12-09T02:03:41.160Z,100317.59
2023-12-09T02:06:08.400Z,100320.53
2023-12-09T02:08:37.612Z,100317.59
2023-12-09T02:11:27.252Z,100304.31
2023-12-09T02:14:08.665Z,100258.34
2023-12-09T02:16:42.956Z,100300.53
2023-12-09T02:19:15.112Z,100249.81
2023-12-09T02:22:05.337Z,100295.97
2023-12-09T02:24:33.152Z,100249.59
2023-12-09T02:27:14.580Z,100243.53
2023-12-09T02:30:02.801Z,100269.72
2023-12-09T02:32:34.022Z,100269.38
2023-12-09T02:35:03.860Z,100234.00
2023-12-09T02:37:33.569Z,100245.22
2023-12-09T02:40:02.352Z,100222.78
2023-12-09T02:42:30.600Z,100260.66
2023-12-09T02:45:11.802Z,100242.38
2023-12-09T02:47:39.038Z,100246.75
2023-12-09T02:50:06.700Z,100251.13
2023-12-09T02:52:35.257Z,100266.13
2023-12-09T02:55:02.293Z,100264.06
2023-12-09T02:57:35.694Z,100286.50
2023-12-09T03:00:02.541Z,100266.13
2023-12-09T03:02:30.076Z,100282.75
2023-12-09T03:04:58.060Z,100277.78
2023-12-09T03:07:27.042Z,100278.38
2023-12-09T03:09:53.678Z,100267.94
2023-12-09T03:12:23.233Z,100260.25
2023-12-09T03:14:55.549Z,100255.25
2023-12-09T03:17:23.805Z,100249.81
2023-12-09T03:19:52.504Z,100221.91
2023-12-09T03:22:24.187Z,100243.97
2023-12-09T03:24:51.664Z,100230.84
2023-12-09T03:27:18.379Z,100227.50
2023-12-09T03:29:45.051Z,100220.22
2023-12-09T03:32:11.782Z,100227.03
2023-12-09T03:34:38.660Z,100223.75
2023-12-09T03:37:05.332Z,100208.97
2023-12-09T03:39:32.162Z,100220.19
2023-12-09T03:41:58.958Z,100222.69
2023-12-09T03:44:28.470Z,100216.88
2023-12-09T03:46:55.181Z,100216.66
2023-12-09T03:49:22.760Z,100229.19
2023-12-09T03:51:49.620Z,100216.47
2023-12-09T03:54:16.510Z,100234.41
2023-12-09T03:56:43.223Z,100214.81
2023-12-09T03:59:10.112Z,100233.00
2023-12-09T04:01:37.076Z,100216.94
2023-12-09T04:04:04.069Z,100216.13
2023-12-09T04:06:31.065Z,100227.38
2023-12-09T04:08:57.808Z,100200.72
2023-12-09T04:11:24.636Z,100214.03
2023-12-09T04:13:51.442Z,100199.88
2023-12-09T04:16:18.245Z,100191.97
2023-12-09T04:18:46.583Z,100189.50
2023-12-09T04:21:13.526Z,100212.44
2023-12-09T04:23:42.866Z,100223.47
2023-12-09T04:26:11.607Z,100212.03
2023-12-09T04:28:39.212Z,100209.97
2023-12-09T04:31:09.350Z,100219.13
2023-12-09T04:33:36.261Z,100193.31
2023-12-09T04:36:04.586Z,100190.81
2023-12-09T04:38:31.388Z,100197.28
2023-12-09T04:40:58.306Z,100192.50
2023-12-09T04:43:25.447Z,100168.38
2023-12-09T04:45:52.936Z,100216.81
2023-12-09T04:48:20.284Z,100212.91
2023-12-09T04:50:47.248Z,100208.69
2023-12-09T04:53:14.132Z,100204.53
2023-12-09T04:55:42.958Z,100192.44
2023-12-09T04:58:09.807Z,100202.00
2023-12-09T05:00:36.573Z,100187.41
2023-12-09T05:03:06.359Z,100182.00
2023-12-09T05:05:33.281Z,100171.78
2023-12-09T05:08:00.879Z,100165.28
2023-12-09T05:10:27.681Z,100154.50
2023-12-09T05:12:55.135Z,100170.72
2023-12-09T05:15:22.041Z,100153.88
2023-12-09T05:17:50.139Z,100164.63
2023-12-09T05:20:17.193Z,100129.94
2023-12-09T05:22:44.346Z,100143.19
2023-12-09T05:25:11.165Z,100162.28
2023-12-09T05:27:39.305Z,100124.06
2023-12-09T05:30:07.101Z,100151.88
2023-12-09T05:32:33.850Z,100115.28
2023-12-09T05:35:00.702Z,100135.00
2023-12-09T05:37:29.145Z,100127.13
2023-12-09T05:39:58.433Z,100093.22
2023-12-09T05:42:25.569Z,100102.31
2023-12-09T05:44:53.982Z,100091.16
2023-12-09T05:47:21.071Z,100141.00
2023-12-09T05:49:47.984Z,100137.88
2023-12-09T05:52:14.732Z,100100.25
2023-12-09T05:54:41.420Z,100128.09
2023-12-09T05:57:08.296Z,100132.03
2023-12-09T05:59:35.021Z,100128.09
2023-12-09T06:02:01.712Z,100135.34
2023-12-09T06:04:29.106Z,100126.44
2023-12-09T06:06:56.154Z,100131.41
2023-12-09T06:09:23.400Z,100133.09
2023-12-09T06:11:50.332Z,100118.09
2023-12-09T06:14:17.843Z,100123.72
2023-12-09T06:16:51.527Z,100113.16
2023-12-09T06:19:19.655Z,100127.75
2023-12-09T06:21:47.043Z,100142.78
2023-12-09T06:24:17.520Z,100101.19
2023-12-09T06:26:47.151Z,100097.50
2023-12-09T06:29:16.143Z,100136.56
2023-12-09T06:31:43.106Z,100115.38
2023-12-09T06:34:10.308Z,100096.22
2023-12-09T06:36:37.584Z,100065.06
2023-12-09T06:39:06.693Z,100117.38
2023-12-09T06:41:33.753Z,100090.81
2023-12-09T06:44:00.515Z,100116.56
2023-12-09T06:46:27.402Z,100094.56
2023-12-09T06:48:54.412Z,100103.31
2023-12-09T06:51:22.131Z,100108.47
2023-12-09T06:53:49.746Z,100074.19
2023-12-09T06:56:23.188Z,100071.88
2023-12-09T06:58:50.509Z,100054.97
2023-12-09T07:01:29.702Z,100075.53
2023-12-09T07:03:57.460Z,100060.94
2023-12-09T07:06:26.057Z,100049.47
2023-12-09T07:08:54.892Z,100064.00
2023-12-09T07:11:23.539Z,100077.75
2023-12-09T07:13:51.286Z,100072.31
2023-12-09T07:16:18.091Z,100072.75
2023-12-09T07:18:47.553Z,100071.47
2023-12-09T07:21:15.776Z,100069.00
2023-12-09T07:23:42.871Z,100075.44
2023-12-09T07:26:09.501Z,100071.06
2023-12-09T07:28:36.736Z,100057.78
2023-12-09T07:31:04.033Z,100062.78
2023-12-09T07:33:30.934Z,100052.56
2023-12-09T07:35:57.756Z,100038.41
2023-12-09T07:38:24.474Z,100037.75
2023-12-09T07:40:57.775Z,100026.06
2023-12-09T07:43:25.642Z,100002.38
2023-12-09T07:45:53.405Z,100044.50
2023-12-09T07:48:20.663Z,100025.19
2023-12-09T07:50:48.485Z,100003.94
2023-12-09T07:53:15.427Z,99982.44
2023-12-09T07:55:42.679Z,99983.66
2023-12-09T07:58:09.573Z,99973.25
2023-12-09T08:00:37.298Z,99965.91
2023-12-09T08:03:06.398Z,99973.91
2023-12-09T08:05:38.381Z,99954.09
2023-12-09T08:08:05.493Z,99941.63
2023-12-09T08:10:32.693Z,99955.59
2023-12-09T08:13:01.319Z,99930.19
2023-12-09T08:15:28.254Z,99928.63
2023-12-09T08:17:55.164Z,99923.03
2023-12-09T08:20:25.025Z,99923.03
2023-12-09T08:22:52.197Z,99925.91
2023-12-09T08:25:19.224Z,99944.59
2023-12-09T08:27:47.058Z,99948.06
2023-12-09T08:30:14.264Z,99926.56
2023-12-09T08:32:46.387Z,99947.75
2023-12-09T08:35:13.573Z,99928.22
2023-12-09T08:37:40.854Z,99935.97
2023-12-09T08:40:13.779Z,99887.69
2023-12-09T08:42:45.274Z,99907.34
2023-12-09T08:45:18.154Z,99913.03
2023-12-09T08:47:45.888Z,99921.38
2023-12-09T08:50:22.511Z,99931.41
2023-12-09T08:52:53.469Z,99924.31
2023-12-09T08:55:20.555Z,99934.63
2023-12-09T08:57:47.674Z,99938.31
2023-12-09T09:00:17.359Z,99924.53
2023-12-09T09:02:44.032Z,99914.94
2023-12-09T09:05:11.583Z,99930.97
2023-12-09T09:07:41.834Z,99907.88
2023-12-09T09:10:09.503Z,99916.25
2023-12-09T09:12:36.140Z,99913.19
2023-12-09T09:15:06.798Z,99883.81
2023-12-09T09:17:36.735Z,99906.53
2023-12-09T09:20:04.514Z,99915.75
2023-12-09T09:22:31.283Z,99909.88
2023-12-09T09:24:59.488Z,99905.16
2023-12-09T09:27:27.267Z,99904.94
2023-12-09T09:29:54.729Z,99902.81
2023-12-09T09:32:22.834Z,99894.19
2023-12-09T09:34:49.936Z,99881.09
2023-12-09T09:37:16.809Z,99880.88
2023-12-09T09:39:43.527Z,99871.19
2023-12-09T09:42:29.282Z,99875.56
2023-12-09T09:45:19.971Z,99866.69
2023-12-09T09:47:49.392Z,99858.78
2023-12-09T09:50:26.909Z,99857.56
2023-12-09T09:52:55.108Z,99850.94
2023-12-09T09:55:22.938Z,99839.44
2023-12-09T09:57:50.671Z,99812.66
2023-12-09T10:00:20.934Z,99824.44
2023-12-09T10:02:55.331Z,99831.63
2023-12-09T10:05:23.799Z,99813.94
2023-12-09T10:07:50.742Z,99800.00
2023-12-09T10:10:23.881Z,99801.47
2023-12-09T10:12:50.937Z,99747.19
2023-12-09T10:15:20.840Z,99733.81
2023-12-09T10:17:48.985Z,99713.75
2023-12-09T10:20:16.995Z,99722.53
2023-12-09T10:22:44.231Z,99714.59
2023-12-09T10:25:11.354Z,99742.84
2023-12-09T10:27:43.011Z,99702.88
2023-12-09T10:30:11.073Z,99700.78
2023-12-09T10:32:39.337Z,99714.59
2023-12-09T10:35:06.917Z,99707.59
2023-12-09T10:37:34.459Z,99700.59
2023-12-09T10:40:04.977Z,99689.75
2023-12-09T10:42:32.802Z,99682.66
2023-12-09T10:45:03.702Z,99666.28
2023-12-09T10:47:31.269Z,99666.88
2023-12-09T10:49:58.371Z,99665.81
2023-12-09T10:52:25.282Z,99652.72
2023-12-09T10:54:52.026Z,99648.94
2023-12-09T10:57:20.865Z,99647.41
2023-12-09T10:59:47.462Z,99634.81
2023-12-09T11:02:15.786Z,99638.47
2023-12-09T11:04:43.679Z,99637.06
2023-12-09T11:07:11.208Z,99639.28
2023-12-09T11:09:41.655Z,99634.84
2023-12-09T11:12:09.499Z,99633.91
2023-12-09T11:14:38.701Z,99652.34
2023-12-09T11:17:35.953Z,99630.09
2023-12-09T11:20:11.716Z,99594.69
2023-12-09T11:22:39.903Z,99607.34
2023-12-09T11:25:08.983Z,99574.59
2023-12-09T11:27:38.001Z,99549.75
2023-12-09T11:30:06.661Z,99529.47
2023-12-09T11:32:34.186Z,99543.22
2023-12-09T11:35:02.742Z,99556.16
2023-12-09T11:37:31.346Z,99527.09
2023-12-09T11:39:58.435Z,99525.53
2023-12-09T11:42:26.668Z,99527.41
2023-12-09T11:44:53.708Z,99524.47
2023-12-09T11:47:20.558Z,99515.22
2023-12-09T11:49:48.320Z,99499.53
2023-12-09T11:52:15.752Z,99484.66
2023-12-09T11:54:42.577Z,99477.34
2023-12-09T11:57:09.379Z,99472.72
2023-12-09T11:59:37.808Z,99466.75
2023-12-09T12:02:04.707Z,99444.59
2023-12-09T12:04:37.500Z,99446.06
2023-12-09T12:07:05.553Z,99433.47
2023-12-09T12:09:32.186Z,99424.47
2023-12-09T12:11:58.919Z,99425.81
2023-12-09T12:14:26.728Z,99402.91
2023-12-09T12:16:53.355Z,99410.00
2023-12-09T12:19:20.393Z,99417.09
2023-12-09T12:21:54.157Z,99414.38
2023-12-09T12:24:21.340Z,99407.28
2023-12-09T12:26:49.527Z,99400.19
2023-12-09T12:29:22.575Z,99362.91
2023-12-09T12:31:50.947Z,99366.56
2023-12-09T12:34:20.228Z,99381.72
2023-12-09T12:36:48.414Z,99334.13
2023-12-09T12:39:16.726Z,99332.50
2023-12-09T12:41:44.518Z,99316.66
2023-12-09T12:44:12.428Z,99298.75
2023-12-09T12:46:39.168Z,99275.84
2023-12-09T12:49:07.381Z,99267.88
2023-12-09T12:51:34.755Z,99244.91
2023-12-09T12:54:02.504Z,99236.50
2023-12-09T12:56:29.389Z,99205.38
2023-12-09T12:58:56.170Z,99210.06
2023-12-09T13:01:23.030Z,99206.00
2023-12-09T13:03:49.987Z,99229.25
2023-12-09T13:06:16.847Z,99210.94
2023-12-09T13:08:44.272Z,99214.22
2023-12-09T13:11:10.942Z,99210.94
2023-12-09T13:13:37.668Z,99181.72
2023-12-09T13:16:04.705Z,99165.09
2023-12-09T13:18:31.428Z,99168.94
2023-12-09T13:20:59.136Z,99147.63
2023-12-09T13:23:26.010Z,99144.41
2023-12-09T13:25:53.124Z,99128.81
2023-12-09T13:28:19.923Z,99116.06
2023-12-09T13:30:46.793Z,99104.88
2023-12-09T13:33:13.513Z,99104.03
2023-12-09T13:35:40.223Z,99099.16
2023-12-09T13:38:08.678Z,99078.16
2023-12-09T13:40:35.320Z,99056.09
2023-12-09T13:43:02.289Z,99049.00
2023-12-09T13:45:37.497Z,99043.84
2023-12-09T13:48:05.364Z,99033.19
2023-12-09T13:50:32.216Z,99041.38
2023-12-09T13:52:59.090Z,99020.09
2023-12-09T13:55:27.665Z,99016.81
2023-12-09T13:57:54.468Z,99019.00
2023-12-09T14:00:21.359Z,99005.63
2023-12-09T14:02:48.102Z,99001.00
2023-12-09T14:05:15.950Z,98998.28
2023-12-09T14:07:48.166Z,98986.25
2023-12-09T14:10:14.940Z,98971.53
2023-12-09T14:12:45.623Z,98967.16
2023-12-09T14:15:13.005Z,98956.75
2023-12-09T14:17:44.894Z,98975.84
2023-12-09T14:20:13.753Z,98958.63
2023-12-09T14:22:40.493Z,98944.47
2023-12-09T14:25:07.370Z,98947.44
2023-12-09T14:27:35.494Z,98937.13
2023-12-09T14:30:02.693Z,98925.16
2023-12-09T14:32:29.553Z,98920.50
2023-12-09T14:34:56.433Z,98911.25
2023-12-09T14:37:23.459Z,98914.50
2023-12-09T14:39:50.040Z,98899.00
2023-12-09T14:42:16.921Z,98867.38
2023-12-09T14:44:43.742Z,98879.59
2023-12-09T14:52:45.008Z,98873.88
2023-12-09T15:09:18.271Z,98804.13
2023-12-09T15:27:14.246Z,98732.63
2023-12-09T15:37:15.821Z,98703.53
2023-12-09T15:48:06.912Z,98669.34
2023-12-09T15:50:45.070Z,98661.69
2023-12-09T15:58:45.130Z,98654.97
2023-12-09T16:01:17.031Z,98646.25
2023-12-09T16:03:47.984Z,98643.28
2023-12-09T16:06:23.797Z,98628.00
2023-12-09T16:08:55.702Z,98634.56
2023-12-09T16:19:53.736Z,98605.19
2023-12-09T16:22:23.837Z,98605.75
2023-12-09T16:24:50.820Z,98606.28
2023-12-09T16:27:18.094Z,98607.91
2023-12-09T16:29:45.277Z,98613.34
2023-12-09T16:32:13.627Z,98612.25
2023-12-09T16:34:40.698Z,98600.03
2023-12-09T16:37:08.779Z,98600.31
2023-12-09T16:39:35.589Z,98594.88
2023-12-09T16:42:02.235Z,98575.28
2023-12-09T16:44:29.115Z,98562.25
2023-12-09T16:46:57.339Z,98580.19
2023-12-09T16:49:24.300Z,98576.41
2023-12-09T16:51:51.166Z,98558.72
2023-12-09T16:54:17.930Z,98550.84
2023-12-09T16:56:45.125Z,98533.97
2023-12-09T16:59:12.338Z,98526.38
2023-12-09T17:01:39.716Z,98517.09
2023-12-09T17:04:06.817Z,98505.69
2023-12-09T17:06:34.478Z,98522.28
2023-12-09T17:09:04.502Z,98519.28
2023-12-09T17:11:46.165Z,98531.25
2023-12-09T17:19:36.202Z,98506.22
2023-12-09T17:22:03.205Z,98527.47
2023-12-09T17:24:30.702Z,98525.81
2023-12-09T17:26:59.360Z,98520.38
2023-12-09T17:29:26.149Z,98511.16
2023-12-09T17:31:56.578Z,98513.88
2023-12-09T17:34:23.387Z,98501.06
2023-12-09T17:36:50.512Z,98518.75
2023-12-09T17:39:17.680Z,98501.88
2023-12-09T17:41:44.503Z,98513.88
2023-12-09T17:44:11.381Z,98491.00
2023-12-09T17:46:38.266Z,98502.97
2023-12-09T17:49:08.686Z,98493.75
2023-12-09T17:51:35.396Z,98486.94
2023-12-09T17:54:03.367Z,98474.44
2023-12-09T17:56:30.099Z,98493.19
2023-12-09T17:58:56.707Z,98484.50
2023-12-09T18:01:24.089Z,98479.88
2023-12-09T18:03:50.962Z,98484.47
2023-12-09T18:06:18.784Z,98480.97
2023-12-09T18:08:45.741Z,98474.72
2023-12-09T18:11:12.682Z,98485.88
2023-12-09T18:13:39.551Z,98479.59
2023-12-09T18:16:07.132Z,98479.06
2023-12-09T18:18:33.856Z,98475.25
2023-12-09T18:21:00.660Z,98489.91
2023-12-09T18:23:27.301Z,98500.25
2023-12-09T18:25:54.357Z,98486.09
2023-12-09T18:28:21.036Z,98496.44
2023-12-09T18:30:47.904Z,98501.63
2023-12-09T18:33:14.766Z,98505.16
2023-12-09T18:40:33.146Z,98474.44
2023-12-09T18:43:12.953Z,98467.09
2023-12-09T18:49:18.462Z,98516.03
2023-12-09T18:52:05.498Z,98492.63
2023-12-09T18:54:46.701Z,98524.72
2023-12-09T18:57:28.736Z,98529.06
2023-12-09T18:59:56.914Z,98519.28
2023-12-09T19:02:23.821Z,98529.06
2023-12-09T19:04:51.012Z,98541.84
2023-12-09T19:07:19.531Z,98527.97
2023-12-09T19:09:46.761Z,98534.75
2023-12-09T19:12:14.339Z,98530.16
2023-12-09T19:14:44.623Z,98533.41
2023-12-09T19:17:11.499Z,98528.78
2023-12-09T19:19:38.546Z,98535.88
2023-12-09T19:22:05.389Z,98543.75
2023-12-09T19:24:32.191Z,98527.44
2023-12-09T19:27:00.128Z,98520.63
2023-12-09T19:29:26.792Z,98522.78
2023-12-09T19:31:53.623Z,98526.31
2023-12-09T19:34:20.546Z,98524.41
2023-12-09T19:36:47.515Z,98514.63
2023-12-09T19:39:16.974Z,98536.69
2023-12-09T19:41:43.724Z,98529.06
2023-12-09T19:44:10.390Z,98537.22
2023-12-09T19:46:37.340Z,98535.56
2023-12-09T19:49:05.061Z,98549.44
2023-12-09T19:51:31.780Z,98543.19
2023-12-09T19:53:58.716Z,98543.16
2023-12-09T19:56:25.249Z,98555.69
2023-12-09T19:58:52.279Z,98551.06
2023-12-09T20:01:19.049Z,98563.59
2023-12-09T20:03:45.957Z,98568.72
2023-12-09T20:06:13.199Z,98560.00
2023-12-09T20:08:39.909Z,98572.00
2023-12-09T20:11:06.753Z,98585.03
2023-12-09T20:13:33.745Z,98603.00
2023-12-09T20:16:01.593Z,98593.72
2023-12-09T20:18:28.562Z,98588.28
2023-12-09T20:20:55.292Z,98609.50
2023-12-09T20:23:22.023Z,98610.00
2023-12-09T20:25:48.725Z,98616.00
2023-12-09T20:28:15.535Z,98620.31
2023-12-09T20:30:43.560Z,98630.59
2023-12-09T20:37:52.029Z,98635.75
2023-12-09T20:43:53.136Z,98682.69
2023-12-09T20:50:31.177Z,98705.16
2023-12-09T20:53:08.079Z,98736.09
2023-12-09T20:55:34.986Z,98749.72
2023-12-09T20:58:01.985Z,98748.88
2023-12-09T21:00:28.653Z,98768.78
2023-12-09T21:02:55.629Z,98772.66
2023-12-09T21:05:24.520Z,98765.88
2023-12-09T21:07:55.430Z,98797.75
2023-12-09T21:10:28.663Z,98791.22
2023-12-09T21:12:58.809Z,98794.28
2023-12-09T21:15:28.118Z,98794.00
2023-12-09T21:17:54.941Z,98815.31
2023-12-09T21:20:21.997Z,98808.25
2023-12-09T21:22:52.029Z,98824.88
2023-12-09T21:25:19.807Z,98827.88
2023-12-09T21:27:47.316Z,98830.09
2023-12-09T21:30:14.338Z,98848.09
2023-12-09T21:32:43.158Z,98866.63
2023-12-09T21:35:10.351Z,98862.81
2023-12-09T21:37:37.183Z,98868.28
2023-12-09T21:40:06.194Z,98889.53
2023-12-09T21:42:33.292Z,98885.44
2023-12-09T21:45:00.218Z,98899.88
2023-12-09T21:47:28.778Z,98889.00
2023-12-09T21:49:56.048Z,98896.06
2023-12-09T21:52:23.658Z,98908.63
2023-12-09T21:54:51.006Z,98917.09
2023-12-09T21:57:17.920Z,98912.44
2023-12-09T21:59:45.021Z,98923.91
2023-12-09T22:02:11.817Z,98920.63
2023-12-09T22:04:39.644Z,98932.06
2023-12-09T22:07:07.650Z,98923.88
2023-12-09T22:09:34.414Z,98934.00
2023-12-09T22:12:01.869Z,98953.34
2023-12-09T22:14:30.999Z,98964.81
2023-12-09T22:16:58.164Z,98956.63
2023-12-09T22:19:27.448Z,98954.72
2023-12-09T22:21:54.282Z,98974.59
2023-12-09T22:24:21.059Z,98986.06
2023-12-09T22:26:48.571Z,98988.00
2023-12-09T22:29:15.350Z,98991.53
2023-12-09T22:31:45.217Z,99006.81
2023-12-09T22:34:12.279Z,99005.72
2023-12-09T22:36:39.549Z,99021.03
2023-12-09T22:39:09.571Z,99028.13
2023-12-09T22:41:36.679Z,99021.53
2023-12-09T22:44:04.193Z,99021.53
2023-12-09T22:46:32.166Z,99045.56
2023-12-09T22:49:00.085Z,99043.91
2023-12-09T22:51:27.978Z,99062.47
2023-12-09T22:53:55.178Z,99077.75
2023-12-09T22:56:27.246Z,99082.13
2023-12-09T22:58:56.370Z,99090.88
2023-12-09T23:01:24.622Z,99103.97
2023-12-09T23:03:52.628Z,99109.94
2023-12-09T23:06:21.798Z,99118.69
2023-12-09T23:08:49.002Z,99119.50
2023-12-09T23:11:16.155Z,99132.31
2023-12-09T23:13:42.898Z,99124.13
2023-12-09T23:16:11.530Z,99132.03
2023-12-09T23:18:40.321Z,99141.31
2023-12-09T23:21:08.202Z,99142.69
2023-12-09T23:23:35.750Z,99142.63
2023-12-09T23:26:02.774Z,99162.03
2023-12-09T23:28:29.561Z,99172.69
2023-12-09T23:30:56.413Z,99173.53
2023-12-09T23:33:26.226Z,99178.69
2023-12-09T23:35:52.991Z,99185.25
2023-12-09T23:38:20.165Z,99178.69
2023-12-09T23:40:46.931Z,99191.50
2023-12-09T23:43:13.648Z,99194.00
2023-12-09T23:45:40.401Z,99184.16
2023-12-09T23:48:08.077Z,99181.97
2023-12-09T23:50:35.228Z,99198.38
2023-12-09T23:53:04.425Z,99193.44
2023-12-09T23:55:31.022Z,99199.16
2023-12-09T23:57:57.671Z,99192.34
